Station History

Weather Underground - logo

Station Historical Data
Daily Summary for December 28, 2017 Units:  Metric    English   Both
« Previous Day
Next Day »
Daily Weekly Monthly Yearly Custom
  High: Low: Average:
Temperature: 16.8 °C 1.1 °C 7.9 °C
Dew Point: 6.5 °C -0.2 °C 3.6 °C
Humidity: 93 % 48 % 77 %
Wind Speed: 5.6 km/h 0 km/h 0.3 km/h
Wind Gust: 5.6 km/h - -
Wind:- - WSW
Pressure: 1026.6 hPa 1022.9 hPa -
Precipitation: 0 mm    
Historical Graphs
 
 
Tabular Data for December 28, 2017
Time Temperature Dew Point Pressure Wind Wind Speed Wind Gust Humidity Rainfall Rate (Hourly)
00:03 4.9 °C 2.4 °C 1026.6 hPa Calm     84 % 0 mm
00:06 4.8 °C 2.3 °C 1026.3 hPa Calm     84 % 0 mm
00:11 4.8 °C 2.7 °C 1026.3 hPa East 1.9 km/h 1.9 km/h 86 % 0 mm
00:12 4.9 °C 2.7 °C 1026.6 hPa East 1.9 km/h 1.9 km/h 86 % 0 mm
00:17 5.2 °C 2.8 °C 1026.6 hPa Calm     85 % 0 mm
00:22 5.3 °C 2.8 °C 1026.3 hPa East 1.9 km/h   84 % 0 mm
00:27 5.4 °C 2.9 °C 1026.3 hPa Calm     84 % 0 mm
00:29 5.4 °C 2.8 °C 1026.3 hPa Calm     83 % 0 mm
00:34 5.3 °C 2.7 °C 1026.3 hPa Calm     83 % 0 mm
00:35 5.3 °C 2.6 °C 1026.3 hPa Calm     83 % 0 mm
00:40 4.8 °C 2.2 °C 1026 hPa Calm     83 % 0 mm
00:42 4.7 °C 2 °C 1026 hPa Calm     83 % 0 mm
00:47 4.3 °C 1.9 °C 1026 hPa East 1.9 km/h   84 % 0 mm
00:52 4.1 °C 1.8 °C 1026 hPa Calm     85 % 0 mm
00:53 4 °C 1.7 °C 1025.6 hPa Calm     85 % 0 mm
00:58 3.8 °C 1.7 °C 1025.6 hPa Calm     86 % 0 mm
01:03 3.7 °C 1.8 °C 1025.6 hPa Calm     87 % 0 mm
01:05 3.7 °C 1.8 °C 1025.6 hPa Calm     87 % 0 mm
01:09 3.6 °C 1.4 °C 1025.6 hPa Calm     86 % 0 mm
01:11 3.5 °C 1.4 °C 1025.6 hPa Calm     86 % 0 mm
01:16 3.3 °C 1.4 °C 1025.6 hPa Calm     87 % 0 mm
01:19 3.3 °C 1.3 °C 1025.6 hPa Calm     87 % 0 mm
01:24 3.1 °C 1.2 °C 1025.6 hPa Calm     87 % 0 mm
01:26 3.1 °C 1.3 °C 1025.6 hPa Calm     88 % 0 mm
01:29 3.1 °C 1.3 °C 1025.6 hPa Calm     88 % 0 mm
01:32 3.1 °C 1.5 °C 1025.6 hPa Calm     89 % 0 mm
01:36 3.1 °C 1.5 °C 1025.6 hPa Calm     89 % 0 mm
01:39 3.1 °C 1.5 °C 1025.6 hPa Calm     89 % 0 mm
01:44 3.2 °C 1.6 °C 1025.6 hPa Calm     89 % 0 mm
01:45 3.2 °C 1.6 °C 1025.6 hPa Calm     89 % 0 mm
01:46 3.2 °C 1.6 °C 1025.6 hPa Calm     89 % 0 mm
01:51 3.2 °C 1.6 °C 1025.6 hPa Calm     89 % 0 mm
01:56 3.1 °C 1.5 °C 1025.6 hPa Calm     89 % 0 mm
01:59 2.9 °C 1.2 °C 1025.6 hPa Calm     88 % 0 mm
02:04 2.8 °C 1.2 °C 1026 hPa Calm     89 % 0 mm
02:06 2.8 °C 1.2 °C 1025.6 hPa Calm     89 % 0 mm
02:09 2.7 °C 1.1 °C 1025.6 hPa Calm     89 % 0 mm
02:12 2.7 °C 1.1 °C 1026 hPa Calm     89 % 0 mm
02:17 2.7 °C 1.2 °C 1026 hPa Calm     90 % 0 mm
02:18 2.7 °C 1.2 °C 1026 hPa Calm     90 % 0 mm
02:23 2.7 °C 1.4 °C 1026 hPa Calm     91 % 0 mm
02:28 2.8 °C 1.5 °C 1026 hPa Calm     91 % 0 mm
02:29 2.8 °C 1.5 °C 1026 hPa Calm     91 % 0 mm
02:33 3 °C 1.7 °C 1026 hPa Calm     91 % 0 mm
02:35 3.1 °C 1.7 °C 1026 hPa Calm     91 % 0 mm
02:40 3.2 °C 1.8 °C 1026 hPa Calm     91 % 0 mm
02:41 3.2 °C 1.9 °C 1026 hPa Calm     91 % 0 mm
02:42 3.2 °C 1.7 °C 1026 hPa Calm     90 % 0 mm
02:47 3.2 °C 1.7 °C 1025.6 hPa Calm     90 % 0 mm
02:50 3.2 °C 1.7 °C 1025.6 hPa Calm     90 % 0 mm
02:51 3.2 °C 1.7 °C 1025.6 hPa Calm     90 % 0 mm
02:55 3.2 °C 1.7 °C 1026 hPa Calm     90 % 0 mm
02:56 3.2 °C 1.7 °C 1026 hPa Calm     90 % 0 mm
03:01 3.3 °C 1.8 °C 1026 hPa East 1.9 km/h 1.9 km/h 90 % 0 mm
03:02 3.3 °C 1.8 °C 1026 hPa Calm     90 % 0 mm
03:07 3.4 °C 1.9 °C 1025.6 hPa Calm     90 % 0 mm
03:08 3.4 °C 1.9 °C 1025.6 hPa Calm     90 % 0 mm
03:14 3.5 °C 1.8 °C 1025.6 hPa Calm     89 % 0 mm
03:19 3.5 °C 1.7 °C 1025.6 hPa Calm     88 % 0 mm
03:22 3.4 °C 1.6 °C 1025.6 hPa Calm     88 % 0 mm
03:27 3.2 °C 1.4 °C 1025.6 hPa Calm     88 % 0 mm
03:28 3.1 °C 1.3 °C 1026 hPa Calm     88 % 0 mm
03:31 2.9 °C 1.1 °C 1026 hPa Calm     88 % 0 mm
03:34 2.7 °C 0.9 °C 1026 hPa Calm     88 % 0 mm
03:39 2.9 °C 1.4 °C 1026 hPa East 1.9 km/h 1.9 km/h 90 % 0 mm
03:41 3.1 °C 1.6 °C 1026 hPa Calm     90 % 0 mm
03:46 3.3 °C 1.8 °C 1026 hPa Calm     90 % 0 mm
03:49 3.6 °C 2.1 °C 1026 hPa East 1.9 km/h 1.9 km/h 90 % 0 mm
03:52 3.8 °C 2.1 °C 1026 hPa East 1.6 km/h   89 % 0 mm
03:57 3.9 °C 2.1 °C 1025.6 hPa Calm     88 % 0 mm
03:59 3.9 °C 2.1 °C 1025.6 hPa Calm     88 % 0 mm
04:04 3.9 °C 2.1 °C 1025.6 hPa Calm     88 % 0 mm
04:06 4 °C 2.2 °C 1025.6 hPa Calm     88 % 0 mm
04:11 4.1 °C 2.3 °C 1025.6 hPa Calm     88 % 0 mm
04:15 4.2 °C 2.2 °C 1025.6 hPa East 1.9 km/h   87 % 0 mm
04:20 4.2 °C 2.1 °C 1025.6 hPa Calm     86 % 0 mm
04:25 4.1 °C 2 °C 1025.3 hPa Calm     86 % 0 mm
04:31 3.9 °C 1.8 °C 1025.3 hPa Calm     86 % 0 mm
04:36 3.7 °C 1.6 °C 1025.3 hPa Calm     86 % 0 mm
04:39 3.4 °C 1.2 °C 1025.3 hPa Calm     85 % 0 mm
04:44 3.1 °C 1.2 °C 1025.3 hPa Calm     87 % 0 mm
04:49 2.9 °C 1.1 °C 1024.9 hPa Calm     88 % 0 mm
04:52 2.7 °C 0.7 °C 1024.9 hPa Calm     87 % 0 mm
04:57 2.2 °C 0.2 °C 1024.9 hPa Calm     87 % 0 mm
04:59 2 °C 0.2 °C 1024.9 hPa Calm     88 % 0 mm
05:03 1.9 °C 0.1 °C 1024.9 hPa East 1.9 km/h   88 % 0 mm
05:06 1.8 °C 0.2 °C 1024.9 hPa East 1.9 km/h   89 % 0 mm
05:08 1.7 °C 0.1 °C 1024.9 hPa Calm     89 % 0 mm
05:10 1.6 °C 0.2 °C 1024.9 hPa Calm     90 % 0 mm
05:14 1.6 °C 0.1 °C 1024.9 hPa Calm     90 % 0 mm
05:16 1.6 °C 0.1 °C 1024.9 hPa Calm     90 % 0 mm
05:20 1.5 °C 0.2 °C 1025.3 hPa Calm     91 % 0 mm
05:25 1.4 °C 0.1 °C 1024.9 hPa East 1.9 km/h   91 % 0 mm
05:27 1.4 °C 0.1 °C 1024.9 hPa East 1.6 km/h 1.6 km/h 91 % 0 mm
05:32 1.2 °C -0.1 °C 1024.9 hPa Calm     91 % 0 mm
05:33 1.2 °C -0.2 °C 1024.9 hPa Calm     91 % 0 mm
05:38 1.1 °C -0.2 °C 1024.9 hPa Calm     91 % 0 mm
05:39 1.1 °C -0.2 °C 1024.9 hPa Calm     91 % 0 mm
05:44 1.1 °C -0.2 °C 1025.3 hPa Calm     91 % 0 mm
05:45 1.1 °C -0.2 °C 1025.3 hPa Calm     91 % 0 mm
05:47 1.1 °C -0.1 °C 1025.3 hPa Calm     92 % 0 mm
05:52 1.1 °C -0.1 °C 1025.3 hPa Calm     92 % 0 mm
05:57 1.2 °C 0 °C 1025.3 hPa Calm     92 % 0 mm
05:58 1.2 °C 0 °C 1025.3 hPa Calm     92 % 0 mm
06:00 1.2 °C 0.1 °C 1025.3 hPa Calm     92 % 0 mm
06:04 1.2 °C 0.1 °C 1025.3 hPa Calm     92 % 0 mm
06:07 1.2 °C 0.1 °C 1025.3 hPa Calm     92 % 0 mm
06:11 1.2 °C 0.1 °C 1025.3 hPa Calm     92 % 0 mm
06:15 1.2 °C 0.1 °C 1025.3 hPa Calm     92 % 0 mm
06:20 1.3 °C 0.1 °C 1025.3 hPa Calm     92 % 0 mm
06:21 1.3 °C 0.1 °C 1025.3 hPa Calm     92 % 0 mm
06:26 1.4 °C 0.4 °C 1025.3 hPa Calm     93 % 0 mm
06:31 1.6 °C 0.6 °C 1025.6 hPa Calm     93 % 0 mm
06:32 1.6 °C 0.6 °C 1025.6 hPa Calm     93 % 0 mm
06:35 1.7 °C 0.7 °C 1025.6 hPa Calm     93 % 0 mm
06:38 1.7 °C 0.7 °C 1025.6 hPa Calm     93 % 0 mm
06:43 1.8 °C 0.8 °C 1025.6 hPa Calm     93 % 0 mm
06:44 1.9 °C 0.9 °C 1025.6 hPa Calm     93 % 0 mm
06:45 1.9 °C 0.9 °C 1025.6 hPa Calm     93 % 0 mm
06:50 1.9 °C 0.8 °C 1025.6 hPa Calm     92 % 0 mm
06:56 1.9 °C 0.8 °C 1025.6 hPa Calm     92 % 0 mm
07:02 2.1 °C 0.9 °C 1025.6 hPa Calm     92 % 0 mm
07:04 2.1 °C 0.9 °C 1025.6 hPa Calm     92 % 0 mm
07:09 2.1 °C 0.7 °C 1026 hPa Calm     91 % 0 mm
07:10 2 °C 0.7 °C 1026 hPa Calm     91 % 0 mm
07:11 2 °C 0.7 °C 1026 hPa Calm     91 % 0 mm
07:16 1.8 °C 0.5 °C 1026 hPa Calm     91 % 0 mm
07:18 1.9 °C 0.6 °C 1026 hPa Calm     91 % 0 mm
07:22 1.9 °C 0.7 °C 1026 hPa Calm     92 % 0 mm
07:27 1.9 °C 0.8 °C 1026 hPa Calm     92 % 0 mm
07:32 1.8 °C 0.5 °C 1026 hPa Calm     91 % 0 mm
07:34 1.9 °C 0.7 °C 1026 hPa Calm     92 % 0 mm
07:38 1.9 °C 0.8 °C 1026 hPa Calm     92 % 0 mm
07:39 2 °C 0.8 °C 1026 hPa Calm     92 % 0 mm
07:44 2.1 °C 0.9 °C 1026 hPa Calm     92 % 0 mm
07:45 2.1 °C 0.9 °C 1026 hPa Calm     92 % 0 mm
07:50 2.3 °C 1.1 °C 1026 hPa Calm     92 % 0 mm
07:55 2.5 °C 1.3 °C 1026.3 hPa Calm     92 % 0 mm
07:58 2.6 °C 1.2 °C 1026.3 hPa Calm     91 % 0 mm
07:59 2.6 °C 1.3 °C 1026.3 hPa Calm     91 % 0 mm
08:04 2.7 °C 1.4 °C 1026.3 hPa Calm     91 % 0 mm
08:09 2.9 °C 1.6 °C 1026.3 hPa Calm     91 % 0 mm
08:11 2.9 °C 1.6 °C 1026.3 hPa Calm     91 % 0 mm
08:16 3.2 °C 1.9 °C 1026.6 hPa Calm     91 % 0 mm
08:19 3.4 °C 2.3 °C 1026.6 hPa Calm     92 % 0 mm
08:21 3.7 °C 2.5 °C 1026.6 hPa Calm     92 % 0 mm
08:26 3.8 °C 2.3 °C 1026.6 hPa Calm     90 % 0 mm
08:28 3.8 °C 2.3 °C 1026.6 hPa Calm     90 % 0 mm
08:33 4.1 °C 2.6 °C 1026.6 hPa Calm     90 % 0 mm
08:35 4.3 °C 2.8 °C 1026.6 hPa Calm     90 % 0 mm
08:37 4.5 °C 3.2 °C 1026.6 hPa Calm     91 % 0 mm
08:41 4.9 °C 3.4 °C 1026.6 hPa Calm     90 % 0 mm
08:46 5.2 °C 3.3 °C 1026.6 hPa Calm     88 % 0 mm
08:51 5.4 °C 3.6 °C 1026.6 hPa Calm     88 % 0 mm
08:56 6 °C 4 °C 1026.6 hPa Calm     87 % 0 mm
09:01 6.7 °C 4.3 °C 1026.6 hPa Calm     85 % 0 mm
09:06 7.4 °C 4.7 °C 1026.6 hPa Calm     83 % 0 mm
09:08 7.7 °C 4.9 °C 1026.6 hPa Calm     83 % 0 mm
09:13 8.5 °C 5.4 °C 1026.6 hPa ESE 1.9 km/h   81 % 0 mm
09:14 8.6 °C 5.3 °C 1026.6 hPa Calm     80 % 0 mm
09:19 9 °C 5.6 °C 1026.6 hPa Calm     79 % 0 mm
09:21 9.2 °C 5.6 °C 1026.6 hPa Calm     78 % 0 mm
09:26 9.5 °C 5.5 °C 1026.6 hPa Calm     76 % 0 mm
09:28 9.6 °C 5.4 °C 1026.6 hPa SSE 1.9 km/h 1.9 km/h 75 % 0 mm
09:31 9.7 °C 5.5 °C 1026.6 hPa Calm     75 % 0 mm
09:33 9.8 °C 5.4 °C 1026.6 hPa Calm   0.3 km/h 74 % 0 mm
09:37 10.1 °C 5.4 °C 1026.6 hPa SSE 1.9 km/h   73 % 0 mm
09:39 10.1 °C 5.3 °C 1026.6 hPa South 1.9 km/h 1.9 km/h 72 % 0 mm
09:44 10.5 °C 5.4 °C 1026.6 hPa Calm     71 % 0 mm
09:46 10.6 °C 5.3 °C 1026.6 hPa Calm     70 % 0 mm
09:52 10.4 °C 5 °C 1026.6 hPa NW 1.9 km/h 1.9 km/h 69 % 0 mm
09:54 10.4 °C 5.2 °C 1026.6 hPa North 1.9 km/h 1.9 km/h 70 % 0 mm
09:59 10.6 °C 5.2 °C 1026.6 hPa WNW 1.9 km/h 1.9 km/h 69 % 0 mm
10:04 10.6 °C 5.4 °C 1026.6 hPa Calm     70 % 0 mm
10:05 10.6 °C 5.2 °C 1026.6 hPa Calm     69 % 0 mm
10:07 10.6 °C 5.2 °C 1026.6 hPa WNW 1.9 km/h 1.9 km/h 69 % 0 mm
10:11 10.5 °C 4.6 °C 1026.6 hPa Calm     67 % 0 mm
10:16 10.4 °C 4.7 °C 1026.6 hPa Calm     68 % 0 mm
10:17 10.4 °C 4.7 °C 1026.3 hPa Calm     68 % 0 mm
10:22 10.4 °C 5.2 °C 1026.6 hPa Calm     70 % 0 mm
10:27 10.6 °C 4.9 °C 1026.3 hPa Calm     68 % 0 mm
10:28 10.6 °C 4.9 °C 1026.3 hPa Calm     68 % 0 mm
10:33 10.6 °C 4.9 °C 1026.3 hPa Calm     68 % 0 mm
10:38 10.7 °C 5.3 °C 1026.3 hPa Calm     69 % 0 mm
10:43 11.2 °C 5.6 °C 1026.3 hPa Calm     68 % 0 mm
10:44 11.2 °C 5.6 °C 1026.3 hPa Calm     68 % 0 mm
10:49 11.8 °C 6.1 °C 1026.3 hPa SW 1.9 km/h   68 % 0 mm
10:51 12.1 °C 5.7 °C 1026.3 hPa Calm     65 % 0 mm
10:58 12 °C 5.2 °C 1026 hPa Calm     63 % 0 mm
11:03 12.1 °C 5.3 °C 1026 hPa WSW 1.9 km/h   63 % 0 mm
11:06 12.2 °C 5.2 °C 1026 hPa WNW 1.9 km/h   62 % 0 mm
11:07 12.3 °C 5.4 °C 1026 hPa Calm     63 % 0 mm
11:12 12.6 °C 5.2 °C 1026 hPa Calm     61 % 0 mm
11:17 13 °C 5.7 °C 1025.6 hPa Calm     61 % 0 mm
11:18 13.1 °C 5.8 °C 1025.6 hPa SSE 1.9 km/h   61 % 0 mm
11:23 13.3 °C 5.2 °C 1025.6 hPa Calm     58 % 0 mm
11:27 13.3 °C 5.2 °C 1025.6 hPa NW 1.9 km/h 1.9 km/h 58 % 0 mm
11:30 13.4 °C 5.6 °C 1025.3 hPa WNW 1.6 km/h 1.6 km/h 59 % 0 mm
11:35 13.5 °C 5.6 °C 1025.3 hPa Calm   0.2 km/h 59 % 0 mm
11:37 13.6 °C 5.4 °C 1025.3 hPa WNW 1.9 km/h 1.9 km/h 58 % 0 mm
11:43 13.7 °C 5.3 °C 1025.3 hPa Calm     57 % 0 mm
11:48 13.9 °C 5.5 °C 1025.3 hPa Calm     57 % 0 mm
11:49 13.9 °C 5.6 °C 1025.3 hPa WNW 1.9 km/h 1.9 km/h 57 % 0 mm
11:54 14.1 °C 5.7 °C 1025.3 hPa Calm     57 % 0 mm
11:59 14.3 °C 5.9 °C 1025.3 hPa ESE 1.9 km/h   57 % 0 mm
12:02 14.4 °C 5.8 °C 1024.9 hPa NW 1.9 km/h 1.9 km/h 56 % 0 mm
12:07 14.7 °C 6 °C 1024.9 hPa ESE 1.9 km/h   56 % 0 mm
12:11 14.8 °C 5.8 °C 1024.9 hPa NW 1.9 km/h 1.9 km/h 55 % 0 mm
12:17 14.9 °C 5.9 °C 1024.9 hPa NW 3.7 km/h 3.7 km/h 55 % 0 mm
12:18 14.9 °C 5.9 °C 1024.6 hPa NW 1.9 km/h   55 % 0 mm
12:23 15 °C 6 °C 1024.6 hPa NW 3.2 km/h 3.2 km/h 55 % 0 mm
12:27 15.1 °C 5.8 °C 1024.6 hPa Calm     54 % 0 mm
12:29 15.1 °C 5.8 °C 1024.6 hPa NW 1.9 km/h 1.9 km/h 54 % 0 mm
12:34 15.2 °C 5.9 °C 1024.6 hPa NW 5.6 km/h 5.6 km/h 54 % 0 mm
12:39 15.3 °C 6.3 °C 1024.3 hPa Calm     55 % 0 mm
12:43 15.5 °C 6.2 °C 1024.3 hPa WSW 3.7 km/h 3.7 km/h 54 % 0 mm
12:48 15.7 °C 6.4 °C 1024.3 hPa WNW 1.9 km/h   54 % 0 mm
12:52 15.8 °C 6.2 °C 1023.9 hPa WNW 1.9 km/h   53 % 0 mm
12:53 15.8 °C 6.2 °C 1023.9 hPa West 3.7 km/h 3.7 km/h 53 % 0 mm
12:58 15.7 °C 5.9 °C 1023.9 hPa WNW 1.9 km/h   52 % 0 mm
13:00 15.7 °C 5.9 °C 1023.9 hPa WNW 1.9 km/h   52 % 0 mm
13:02 15.7 °C 5.9 °C 1023.9 hPa Calm     52 % 0 mm
13:06 15.9 °C 6.4 °C 1023.6 hPa Calm     53 % 0 mm
13:08 16.1 °C 6.2 °C 1023.6 hPa Calm     52 % 0 mm
13:13 16.2 °C 6 °C 1023.6 hPa Calm     51 % 0 mm
13:18 16.2 °C 6 °C 1023.6 hPa WNW 3.2 km/h 3.2 km/h 51 % 0 mm
13:19 16.2 °C 6 °C 1023.6 hPa WNW 5.6 km/h 5.6 km/h 51 % 0 mm
13:24 16.2 °C 6 °C 1023.6 hPa WNW 1.9 km/h 1.9 km/h 51 % 0 mm
13:26 16.2 °C 5.7 °C 1023.6 hPa West 1.9 km/h 1.9 km/h 50 % 0 mm
13:28 16.2 °C 5.7 °C 1023.6 hPa Calm     50 % 0 mm
13:32 16.3 °C 6.1 °C 1023.2 hPa Calm     51 % 0 mm
13:37 16.4 °C 6 °C 1023.2 hPa NW 3.2 km/h 3.2 km/h 50 % 0 mm
13:40 16.4 °C 5.7 °C 1023.2 hPa North 1.9 km/h 1.9 km/h 49 % 0 mm
13:45 16.4 °C 6 °C 1023.2 hPa NW 1.9 km/h 1.9 km/h 50 % 0 mm
13:49 16.5 °C 6.1 °C 1023.2 hPa NW 1.9 km/h 1.9 km/h 50 % 0 mm
13:51 16.5 °C 6.1 °C 1023.2 hPa WNW 1.9 km/h 1.9 km/h 50 % 0 mm
13:57 16.6 °C 6.1 °C 1023.2 hPa Calm     50 % 0 mm
13:58 16.6 °C 6.1 °C 1023.2 hPa Calm     50 % 0 mm
14:00 16.6 °C 6.1 °C 1023.2 hPa WNW 3.7 km/h 3.7 km/h 50 % 0 mm
14:05 16.6 °C 5.8 °C 1023.2 hPa WSW 3.2 km/h 3.2 km/h 49 % 0 mm
14:06 16.6 °C 5.8 °C 1023.2 hPa WNW 1.9 km/h 1.9 km/h 49 % 0 mm
14:11 16.6 °C 5.8 °C 1023.2 hPa Calm   0.2 km/h 49 % 0 mm
14:12 16.6 °C 5.8 °C 1023.2 hPa SW 1.9 km/h 1.9 km/h 49 % 0 mm
14:17 16.7 °C 5.6 °C 1023.2 hPa NW 1.9 km/h 1.9 km/h 48 % 0 mm
14:22 16.7 °C 5.9 °C 1023.2 hPa NW 1.9 km/h 1.9 km/h 49 % 0 mm
14:24 16.7 °C 5.9 °C 1023.2 hPa WNW 1.9 km/h 1.9 km/h 49 % 0 mm
14:29 16.7 °C 5.9 °C 1023.2 hPa NW 1.9 km/h   49 % 0 mm
14:35 16.8 °C 6 °C 1022.9 hPa NW 3.7 km/h 3.7 km/h 49 % 0 mm
14:36 16.8 °C 5.7 °C 1022.9 hPa NW 1.9 km/h   48 % 0 mm
14:37 16.8 °C 5.7 °C 1022.9 hPa WNW 1.9 km/h 1.9 km/h 48 % 0 mm
14:42 16.7 °C 5.9 °C 1023.2 hPa Calm   0.3 km/h 49 % 0 mm
14:45 16.7 °C 5.6 °C 1023.2 hPa Calm     48 % 0 mm
14:50 16.7 °C 5.9 °C 1023.2 hPa NW 3.7 km/h 3.7 km/h 49 % 0 mm
14:51 16.7 °C 5.9 °C 1023.2 hPa WNW 1.9 km/h 1.9 km/h 49 % 0 mm
14:56 16.6 °C 5.8 °C 1023.2 hPa WSW 1.9 km/h 1.9 km/h 49 % 0 mm
15:01 16.6 °C 5.8 °C 1023.2 hPa Calm   0.2 km/h 49 % 0 mm
15:02 16.6 °C 5.8 °C 1023.2 hPa Calm   0.5 km/h 49 % 0 mm
15:07 16.5 °C 5.7 °C 1023.2 hPa NW 1.9 km/h   49 % 0 mm
15:13 16.5 °C 5.7 °C 1023.2 hPa Calm     49 % 0 mm
15:18 16.4 °C 5.7 °C 1023.2 hPa Calm   0.8 km/h 49 % 0 mm
15:22 16.4 °C 5.7 °C 1023.2 hPa Calm   0.2 km/h 49 % 0 mm
15:27 16.4 °C 6.2 °C 1023.2 hPa NW 1.9 km/h 1.9 km/h 51 % 0 mm
15:28 16.4 °C 6.2 °C 1023.2 hPa NW 1.9 km/h   51 % 0 mm
15:33 16.3 °C 5.6 °C 1023.2 hPa Calm     49 % 0 mm
15:34 16.3 °C 5.6 °C 1023.2 hPa Calm     49 % 0 mm
15:39 16.2 °C 5.8 °C 1023.2 hPa Calm     50 % 0 mm
15:41 16.2 °C 5.8 °C 1023.2 hPa Calm     50 % 0 mm
15:45 16.2 °C 5.7 °C 1023.2 hPa Calm     50 % 0 mm
15:47 16.1 °C 5.9 °C 1023.2 hPa Calm     51 % 0 mm
15:52 16 °C 5.8 °C 1023.2 hPa Calm     51 % 0 mm
15:57 15.9 °C 5.8 °C 1023.2 hPa Calm     51 % 0 mm
15:59 15.9 °C 6.1 °C 1023.2 hPa WNW 1.9 km/h   52 % 0 mm
16:04 15.8 °C 5.9 °C 1023.2 hPa WNW 1.6 km/h   52 % 0 mm
16:07 15.7 °C 5.9 °C 1023.2 hPa Calm     52 % 0 mm
16:12 15.6 °C 6 °C 1023.2 hPa Calm     53 % 0 mm
16:14 15.4 °C 5.9 °C 1023.2 hPa Calm     53 % 0 mm
16:19 15.2 °C 5.9 °C 1023.2 hPa Calm     54 % 0 mm
16:20 15.1 °C 5.9 °C 1023.2 hPa Calm     54 % 0 mm
16:21 15.1 °C 5.8 °C 1023.2 hPa Calm     54 % 0 mm
16:26 14.7 °C 5.7 °C 1023.2 hPa Calm     55 % 0 mm
16:31 14.4 °C 6.3 °C 1022.9 hPa Calm     58 % 0 mm
16:32 14.4 °C 6.2 °C 1023.2 hPa Calm     58 % 0 mm
16:35 14.2 °C 6.3 °C 1022.9 hPa Calm     59 % 0 mm
16:40 13.8 °C 6.4 °C 1022.9 hPa Calm     61 % 0 mm
16:42 13.7 °C 6.5 °C 1022.9 hPa Calm     62 % 0 mm
16:47 13.3 °C 6.4 °C 1022.9 hPa Calm     63 % 0 mm
16:52 13 °C 6.1 °C 1022.9 hPa Calm     63 % 0 mm
16:53 12.9 °C 6.2 °C 1022.9 hPa Calm     64 % 0 mm
16:58 12.5 °C 6.1 °C 1022.9 hPa Calm     65 % 0 mm
17:03 12.2 °C 6 °C 1022.9 hPa Calm     66 % 0 mm
17:04 12.1 °C 5.9 °C 1022.9 hPa Calm     66 % 0 mm
17:09 11.8 °C 6.3 °C 1023.2 hPa Calm     69 % 0 mm
17:10 11.7 °C 6.2 °C 1023.2 hPa Calm     69 % 0 mm
17:14 11.6 °C 6.1 °C 1023.2 hPa Calm     69 % 0 mm
17:16 11.5 °C 6.2 °C 1023.2 hPa Calm     70 % 0 mm
17:21 11.3 °C 6.3 °C 1023.2 hPa Calm     71 % 0 mm
17:26 11.3 °C 6.2 °C 1023.2 hPa Calm     71 % 0 mm
17:31 11.1 °C 6.1 °C 1023.2 hPa Calm     71 % 0 mm
17:36 11.1 °C 6 °C 1023.2 hPa Calm     71 % 0 mm
17:40 11 °C 5.9 °C 1023.2 hPa Calm     71 % 0 mm
17:45 10.8 °C 6 °C 1023.2 hPa Calm     72 % 0 mm
17:46 10.8 °C 6 °C 1023.2 hPa Calm     72 % 0 mm
17:51 10.7 °C 5.8 °C 1023.2 hPa Calm     72 % 0 mm
17:52 10.6 °C 5.8 °C 1023.2 hPa Calm     72 % 0 mm
17:53 10.6 °C 5.8 °C 1023.2 hPa Calm     72 % 0 mm
17:58 10.4 °C 5.6 °C 1023.2 hPa Calm     72 % 0 mm
17:59 10.4 °C 5.6 °C 1023.2 hPa Calm     72 % 0 mm
18:04 10.1 °C 5.4 °C 1023.2 hPa Calm     73 % 0 mm
18:06 9.9 °C 5.4 °C 1023.2 hPa Calm     74 % 0 mm
18:11 9.6 °C 5.3 °C 1023.6 hPa Calm     75 % 0 mm
18:15 9.3 °C 5.3 °C 1023.6 hPa Calm     76 % 0 mm
18:17 9.2 °C 5.3 °C 1023.6 hPa Calm     77 % 0 mm
18:22 9 °C 5.4 °C 1023.6 hPa Calm     78 % 0 mm
18:26 8.9 °C 5.3 °C 1023.6 hPa Calm     78 % 0 mm
18:31 8.7 °C 5.1 °C 1023.6 hPa Calm     78 % 0 mm
18:36 8.5 °C 5.1 °C 1023.6 hPa Calm     79 % 0 mm
18:37 8.4 °C 5 °C 1023.6 hPa Calm     79 % 0 mm
18:42 8.3 °C 4.9 °C 1023.6 hPa Calm     79 % 0 mm
18:43 8.3 °C 4.9 °C 1023.6 hPa Calm     79 % 0 mm
18:45 8.3 °C 4.8 °C 1023.6 hPa Calm     79 % 0 mm
18:48 8.2 °C 4.9 °C 1023.6 hPa Calm     80 % 0 mm
18:53 8.3 °C 5.1 °C 1023.6 hPa Calm     80 % 0 mm
18:56 8.6 °C 5.2 °C 1023.6 hPa Calm     79 % 0 mm
18:59 8.7 °C 5.1 °C 1023.6 hPa Calm     78 % 0 mm
19:04 8.9 °C 5.1 °C 1023.6 hPa Calm     77 % 0 mm
19:09 8.9 °C 5.1 °C 1023.6 hPa Calm     77 % 0 mm
19:14 9.1 °C 5.1 °C 1023.6 hPa Calm     76 % 0 mm
19:19 9.1 °C 5.1 °C 1023.6 hPa Calm     76 % 0 mm
19:22 8.8 °C 4.8 °C 1023.6 hPa Calm     76 % 0 mm
19:24 8.8 °C 4.8 °C 1023.6 hPa Calm     76 % 0 mm
19:29 8.4 °C 4.7 °C 1023.6 hPa Calm     77 % 0 mm
19:34 8.2 °C 4.6 °C 1023.6 hPa Calm     78 % 0 mm
19:35 8.2 °C 4.6 °C 1023.6 hPa Calm     78 % 0 mm
19:40 8 °C 4.4 °C 1023.6 hPa Calm     78 % 0 mm
19:41 7.9 °C 4.3 °C 1023.6 hPa Calm     78 % 0 mm
19:42 7.9 °C 4.3 °C 1023.6 hPa Calm     78 % 0 mm
19:47 7.7 °C 4.5 °C 1023.6 hPa Calm     80 % 0 mm
19:52 7.6 °C 4.4 °C 1023.6 hPa Calm     80 % 0 mm
19:56 7.4 °C 4.2 °C 1023.6 hPa Calm     80 % 0 mm
19:57 7.4 °C 4.4 °C 1023.6 hPa Calm     81 % 0 mm
20:02 7.4 °C 4.3 °C 1023.6 hPa Calm     81 % 0 mm
20:03 7.4 °C 4.2 °C 1023.6 hPa Calm     80 % 0 mm
20:08 7.3 °C 4.2 °C 1023.6 hPa Calm     81 % 0 mm
20:10 7.3 °C 4.4 °C 1023.6 hPa Calm     82 % 0 mm
20:15 7.2 °C 4.2 °C 1023.6 hPa Calm     81 % 0 mm
20:20 7.1 °C 4.1 °C 1023.6 hPa Calm     81 % 0 mm
20:22 7.1 °C 4 °C 1023.6 hPa Calm     81 % 0 mm
20:27 6.9 °C 3.8 °C 1023.6 hPa Calm     81 % 0 mm
20:29 6.8 °C 3.8 °C 1023.6 hPa Calm     81 % 0 mm
20:35 6.7 °C 4.1 °C 1023.6 hPa Calm     83 % 0 mm
20:40 6.7 °C 4.1 °C 1023.6 hPa Calm     83 % 0 mm
20:45 6.7 °C 4 °C 1023.6 hPa Calm     83 % 0 mm
20:47 6.7 °C 4 °C 1023.6 hPa Calm     83 % 0 mm
20:52 6.6 °C 3.9 °C 1023.6 hPa Calm     83 % 0 mm
20:54 6.6 °C 4.1 °C 1023.6 hPa Calm     84 % 0 mm
20:59 6.6 °C 4.1 °C 1023.6 hPa Calm     84 % 0 mm
21:00 6.6 °C 4.1 °C 1023.9 hPa Calm     84 % 0 mm
21:05 6.6 °C 4.1 °C 1023.9 hPa Calm     84 % 0 mm
21:10 6.5 °C 4 °C 1023.9 hPa Calm     84 % 0 mm
21:15 6.4 °C 3.9 °C 1023.9 hPa Calm     84 % 0 mm
21:17 6.4 °C 3.9 °C 1023.9 hPa Calm     84 % 0 mm
21:22 6.3 °C 3.9 °C 1023.9 hPa Calm     85 % 0 mm
21:23 6.2 °C 3.9 °C 1023.9 hPa Calm     85 % 0 mm
21:28 6.2 °C 3.8 °C 1023.9 hPa Calm     85 % 0 mm
21:33 6.1 °C 3.8 °C 1023.9 hPa Calm     85 % 0 mm
21:38 6 °C 3.7 °C 1023.9 hPa Calm     85 % 0 mm
21:39 6 °C 3.7 °C 1023.9 hPa Calm     85 % 0 mm
21:44 5.9 °C 3.7 °C 1023.9 hPa Calm     86 % 0 mm
21:45 5.9 °C 3.7 °C 1023.9 hPa Calm     86 % 0 mm
21:49 5.9 °C 3.7 °C 1023.9 hPa Calm     86 % 0 mm
21:54 5.9 °C 3.9 °C 1023.9 hPa Calm     87 % 0 mm
21:55 5.9 °C 3.9 °C 1023.9 hPa Calm     87 % 0 mm
22:00 6.2 °C 4 °C 1023.9 hPa Calm     86 % 0 mm
22:05 6.3 °C 3.9 °C 1023.9 hPa Calm     85 % 0 mm
22:06 6.2 °C 3.9 °C 1023.9 hPa Calm     85 % 0 mm
22:11 6.2 °C 3.7 °C 1023.9 hPa Calm     84 % 0 mm
22:14 6.1 °C 3.6 °C 1023.9 hPa Calm     84 % 0 mm
22:15 6.1 °C 3.6 °C 1023.9 hPa Calm     84 % 0 mm
22:20 5.8 °C 3.3 °C 1023.9 hPa Calm     84 % 0 mm
22:21 5.8 °C 3.3 °C 1023.9 hPa Calm     84 % 0 mm
22:26 5.6 °C 3.1 °C 1023.9 hPa Calm     84 % 0 mm
22:28 5.5 °C 3.2 °C 1024.3 hPa Calm     85 % 0 mm
22:33 5.6 °C 3.4 °C 1023.9 hPa Calm     86 % 0 mm
22:35 5.5 °C 3.3 °C 1023.9 hPa Calm     86 % 0 mm
22:41 5.4 °C 3.2 °C 1023.9 hPa Calm     86 % 0 mm
22:44 5.3 °C 3.2 °C 1023.9 hPa Calm     86 % 0 mm
22:48 5.3 °C 3.1 °C 1023.9 hPa Calm     86 % 0 mm
22:53 5.3 °C 3.1 °C 1024.3 hPa Calm     86 % 0 mm
22:58 5.2 °C 3.1 °C 1024.3 hPa Calm     86 % 0 mm
23:03 5.1 °C 2.9 °C 1024.3 hPa Calm     86 % 0 mm
23:04 5.1 °C 2.9 °C 1024.3 hPa Calm     86 % 0 mm
23:05 5.1 °C 2.9 °C 1024.3 hPa Calm     86 % 0 mm
23:10 4.8 °C 2.7 °C 1024.3 hPa Calm     86 % 0 mm
23:15 4.7 °C 2.7 °C 1024.3 hPa Calm     87 % 0 mm
23:19 4.7 °C 2.7 °C 1024.3 hPa Calm     87 % 0 mm
23:24 4.7 °C 2.9 °C 1024.3 hPa Calm     88 % 0 mm
23:29 4.8 °C 2.9 °C 1024.3 hPa Calm     88 % 0 mm
23:31 4.8 °C 2.9 °C 1023.9 hPa Calm     88 % 0 mm
23:36 4.7 °C 2.8 °C 1023.9 hPa Calm     88 % 0 mm
23:37 4.7 °C 2.8 °C 1023.9 hPa Calm     88 % 0 mm
23:42 4.6 °C 2.8 °C 1023.9 hPa Calm     88 % 0 mm
23:44 4.6 °C 2.6 °C 1023.9 hPa Calm     87 % 0 mm
23:48 4.4 °C 2.3 °C 1023.9 hPa Calm     86 % 0 mm
23:51 4.3 °C 2.3 °C 1023.9 hPa Calm     87 % 0 mm
23:53 4.2 °C 2.4 °C 1023.9 hPa Calm     88 % 0 mm
23:58 4.1 °C 2.2 °C 1023.9 hPa Calm     88 % 0 mm
23:59 4.1 °C 2.2 °C 1023.9 hPa Calm     88 % 0 mm
Park Place, Exeter, Tulare County, California, USA
Compliments of Weather Underground - 3.5 mb